This is the latest recevied weather packets stored in our database for station/object SV2LPQ-2. If no packets are shown the sender has not sent any weather packets the latest 10 day(s).
| Time | Temp. | Humidity | Pressure | Rain* | Wind** | Luminosity | Snow |
|---|---|---|---|---|---|---|---|
| 1777620928 | 12.78° C | 70% | 1042.5 hPa | 0 mm | - | - | - |
| 1777620428 | 12.22° C | 70% | 1042.5 hPa | 0 mm | - | - | - |
| 1777619927 | 12.22° C | 72% | 1042.5 hPa | 0 mm | - | - | - |
| 1777619427 | 11.67° C | 74% | 1042.5 hPa | 0 mm | - | - | - |
| 1777618927 | 12.22° C | 73% | 1042.5 hPa | 0 mm | - | - | - |
| 1777618427 | 12.22° C | 72% | 1042.5 hPa | 0 mm | - | - | - |
| 1777617927 | 11.67° C | 73% | 1042.5 hPa | 0 mm | - | - | - |
| 1777617426 | 11.67° C | 73% | 1042.5 hPa | 0 mm | - | - | - |
| 1777616926 | 11.67° C | 72% | 1042.5 hPa | 0 mm | - | - | - |
| 1777616426 | 11.11° C | 75% | 1042.5 hPa | 0 mm | - | - | - |
| 1777615926 | 11.11° C | 73% | 1042.5 hPa | 0 mm | - | - | - |
| 1777615426 | 11.11° C | 72% | 1042.5 hPa | 0 mm | - | - | - |
| 1777614925 | 11.11° C | 71% | 1042.5 hPa | 0 mm | - | - | - |
| 1777614425 | 10.56° C | 72% | 1042.5 hPa | 0 mm | - | - | - |
| 1777613925 | 10.56° C | 72% | 1042.5 hPa | 0 mm | - | - | - |
| 1777613425 | 10° C | 71% | 1042.5 hPa | 0 mm | - | - | - |
| 1777612925 | 10° C | 72% | 1042.5 hPa | 0 mm | - | - | - |
| 1777612425 | 9.44° C | 72% | 1042.5 hPa | 0 mm | - | - | - |
| 1777611925 | 9.44° C | 71% | 1042.5 hPa | 0 mm | - | - | - |
| 1777611425 | 9.44° C | 72% | 1042.5 hPa | 0 mm | - | - | - |
| 1777610925 | 9.44° C | 73% | 1042.5 hPa | 0 mm | - | - | - |
| 1777610424 | 8.89° C | 73% | 1042.5 hPa | 0 mm | - | - | - |
| 1777609924 | 8.33° C | 75% | 1042.5 hPa | 0 mm | - | - | - |
| 1777609424 | 7.78° C | 76% | 1042.5 hPa | 0 mm | - | - | - |
| 1777608924 | 7.22° C | 79% | 1042.5 hPa | 0 mm | - | - | - |
* Rain latest hour (hover to see other rain measurements)
** Current wind speed in m/s (hover to see current wind gust speed)